createdAt,value
2019-02-17T00:00:46.382Z,3.30
2019-02-17T00:01:47.775Z,3.19
2019-02-17T00:02:49.176Z,3.23
2019-02-17T00:03:51.220Z,3.34
2019-02-17T00:04:52.608Z,3.34
2019-02-17T00:05:54.012Z,3.23
2019-02-17T00:06:55.396Z,3.23
2019-02-17T00:07:56.820Z,3.31
2019-02-17T00:08:58.205Z,3.25
2019-02-17T00:09:59.597Z,3.20
2019-02-17T00:11:00.981Z,3.23
2019-02-17T00:12:02.384Z,3.20
2019-02-17T00:13:03.793Z,3.20
2019-02-17T00:14:05.228Z,3.25
2019-02-17T00:15:06.627Z,3.20
2019-02-17T00:16:08.036Z,3.25
2019-02-17T00:17:09.440Z,3.22
2019-02-17T00:18:10.841Z,3.20
2019-02-17T00:19:12.235Z,3.22
2019-02-17T00:20:13.660Z,3.25
2019-02-17T00:21:15.053Z,3.20
2019-02-17T00:22:16.461Z,3.20
2019-02-17T00:23:17.849Z,3.22
2019-02-17T00:24:19.259Z,3.23
2019-02-17T00:25:20.675Z,3.17
2019-02-17T00:26:22.047Z,3.20
2019-02-17T00:27:23.440Z,3.17
2019-02-17T00:28:24.847Z,3.10
2019-02-17T00:29:26.243Z,3.05
2019-02-17T00:30:27.624Z,3.10
2019-02-17T00:31:29.007Z,3.12
2019-02-17T00:32:30.394Z,3.04
2019-02-17T00:33:31.798Z,3.05
2019-02-17T00:34:33.211Z,3.04
2019-02-17T00:35:34.600Z,3.08
2019-02-17T00:36:36.002Z,3.08
2019-02-17T00:37:37.384Z,3.01
2019-02-17T00:38:38.768Z,2.99
2019-02-17T00:39:40.728Z,2.99
2019-02-17T00:40:42.138Z,2.94
2019-02-17T00:41:43.557Z,2.83
2019-02-17T00:42:44.955Z,2.98
2019-02-17T00:43:46.362Z,2.86
2019-02-17T00:44:47.763Z,2.95
2019-02-17T00:45:49.153Z,2.89
2019-02-17T00:46:50.545Z,2.90
2019-02-17T00:47:51.948Z,2.90
2019-02-17T00:48:53.334Z,2.84
2019-02-17T00:49:54.730Z,2.86
2019-02-17T00:50:56.123Z,2.94
2019-02-17T00:51:57.516Z,2.89
2019-02-17T00:52:58.908Z,2.90
2019-02-17T00:54:00.308Z,2.89
2019-02-17T00:55:01.686Z,2.89
2019-02-17T00:56:03.093Z,2.89
2019-02-17T00:57:04.482Z,2.84
2019-02-17T00:58:05.870Z,2.84
2019-02-17T00:59:10.244Z,2.80
2019-02-17T01:00:08.592Z,2.87
2019-02-17T01:01:09.995Z,2.81
2019-02-17T01:02:11.384Z,2.86
2019-02-17T01:03:12.784Z,2.84
2019-02-17T01:04:14.194Z,2.84
2019-02-17T01:05:15.592Z,2.81
2019-02-17T01:06:16.984Z,2.86
2019-02-17T01:07:18.366Z,2.80
2019-02-17T01:08:19.758Z,2.83
2019-02-17T01:09:21.164Z,2.81
2019-02-17T01:10:22.560Z,2.81
2019-02-17T01:11:23.958Z,2.80
2019-02-17T01:12:25.342Z,2.83
2019-02-17T01:13:26.742Z,2.79
2019-02-17T01:14:28.134Z,2.77
2019-02-17T01:15:29.535Z,2.83
2019-02-17T01:16:30.973Z,2.74
2019-02-17T01:17:32.391Z,2.69
2019-02-17T01:18:33.784Z,2.73
2019-02-17T01:19:35.191Z,2.73
2019-02-17T01:20:36.580Z,2.79
2019-02-17T01:21:37.971Z,2.69
2019-02-17T01:22:40.115Z,2.71
2019-02-17T01:23:41.505Z,2.68
2019-02-17T01:24:42.893Z,2.62
2019-02-17T01:25:44.292Z,2.68
2019-02-17T01:26:45.691Z,2.71
2019-02-17T01:27:47.089Z,2.71
2019-02-17T01:28:48.476Z,2.71
2019-02-17T01:29:49.868Z,2.66
2019-02-17T01:30:51.258Z,2.73
2019-02-17T01:31:52.647Z,2.71
2019-02-17T01:32:54.029Z,2.65
2019-02-17T01:33:55.413Z,2.74
2019-02-17T01:34:56.807Z,2.63
2019-02-17T01:35:58.194Z,2.74
2019-02-17T01:36:59.649Z,2.62
2019-02-17T01:38:00.989Z,2.73
2019-02-17T01:39:02.369Z,2.66
2019-02-17T01:40:03.754Z,2.68
2019-02-17T01:41:05.135Z,2.65
2019-02-17T01:42:06.535Z,2.63
2019-02-17T01:43:07.929Z,2.61
2019-02-17T01:44:09.317Z,2.56
2019-02-17T01:45:10.699Z,2.58
2019-02-17T01:46:12.085Z,2.66
2019-02-17T01:47:13.472Z,2.62
2019-02-17T01:48:14.862Z,2.65
2019-02-17T01:49:16.253Z,2.62
2019-02-17T01:50:17.631Z,2.61
2019-02-17T01:51:19.025Z,2.62
2019-02-17T01:52:20.415Z,2.53
2019-02-17T01:53:21.805Z,2.61
2019-02-17T01:54:23.195Z,2.59
2019-02-17T01:55:24.590Z,2.66
2019-02-17T01:56:25.968Z,2.62
2019-02-17T01:57:27.351Z,2.48
2019-02-17T01:58:28.741Z,2.56
2019-02-17T01:59:30.883Z,2.59
2019-02-17T02:00:31.490Z,2.63
2019-02-17T02:01:32.882Z,2.59
2019-02-17T02:02:34.282Z,2.59
2019-02-17T02:03:35.693Z,2.53
2019-02-17T02:04:37.110Z,2.59
2019-02-17T02:05:38.510Z,2.62
2019-02-17T02:06:39.909Z,2.63
2019-02-17T02:07:41.310Z,2.59
2019-02-17T02:08:42.703Z,2.55
2019-02-17T02:09:44.086Z,2.51
2019-02-17T02:10:45.490Z,2.61
2019-02-17T02:11:46.890Z,2.59
2019-02-17T02:12:48.992Z,2.59
2019-02-17T02:13:50.390Z,2.59
2019-02-17T02:14:51.782Z,2.61
2019-02-17T02:15:53.188Z,2.58
2019-02-17T02:16:54.573Z,2.51
2019-02-17T02:17:55.970Z,2.59
2019-02-17T02:18:57.342Z,2.61
2019-02-17T02:19:59.404Z,2.62
2019-02-17T02:21:00.790Z,2.53
2019-02-17T02:22:02.196Z,2.58
2019-02-17T02:23:03.581Z,2.50
2019-02-17T02:24:04.968Z,2.61
2019-02-17T02:25:06.351Z,2.53
2019-02-17T02:26:07.748Z,2.59
2019-02-17T02:27:09.136Z,2.50
2019-02-17T02:28:10.511Z,2.43
2019-02-17T02:29:11.912Z,2.50
2019-02-17T02:30:13.324Z,2.45
2019-02-17T02:31:14.690Z,2.44
2019-02-17T02:32:16.080Z,2.43
2019-02-17T02:33:17.470Z,2.53
2019-02-17T02:34:18.848Z,2.58
2019-02-17T02:35:20.256Z,2.43
2019-02-17T02:36:21.651Z,2.55
2019-02-17T02:37:23.078Z,2.48
2019-02-17T02:38:24.467Z,2.63
2019-02-17T02:39:25.883Z,2.58
2019-02-17T02:40:27.293Z,2.65
2019-02-17T02:41:34.645Z,2.77
2019-02-17T02:42:30.048Z,2.73
2019-02-17T02:43:31.447Z,2.73
2019-02-17T02:44:32.885Z,2.81
2019-02-17T02:45:34.269Z,2.86
2019-02-17T02:46:35.743Z,2.80
2019-02-17T02:47:37.079Z,2.84
2019-02-17T02:48:38.475Z,3.02
2019-02-17T02:49:39.905Z,2.97
2019-02-17T02:50:41.288Z,2.97
2019-02-17T02:51:42.668Z,3.01
2019-02-17T02:52:44.058Z,2.98
2019-02-17T02:53:45.441Z,3.01
2019-02-17T02:54:46.845Z,3.01
2019-02-17T02:55:48.244Z,3.07
2019-02-17T02:56:49.630Z,3.12
2019-02-17T02:57:51.761Z,3.15
2019-02-17T02:58:53.189Z,3.16
2019-02-17T02:59:54.616Z,3.13
2019-02-17T03:00:56.008Z,3.16
2019-02-17T03:01:57.398Z,3.26
2019-02-17T03:02:58.803Z,3.25
2019-02-17T03:04:00.176Z,3.13
2019-02-17T03:05:01.630Z,3.25
2019-02-17T03:06:03.010Z,3.15
2019-02-17T03:07:04.414Z,3.17
2019-02-17T03:08:05.815Z,3.26
2019-02-17T03:09:07.214Z,3.22
2019-02-17T03:10:09.267Z,3.23
2019-02-17T03:11:10.666Z,3.23
2019-02-17T03:12:12.072Z,3.20
2019-02-17T03:13:13.468Z,3.22
2019-02-17T03:14:14.862Z,3.34
2019-02-17T03:15:16.266Z,3.34
2019-02-17T03:16:17.657Z,3.26
2019-02-17T03:17:19.055Z,3.19
2019-02-17T03:18:20.450Z,3.23
2019-02-17T03:19:21.839Z,3.23
2019-02-17T03:20:23.225Z,3.25
2019-02-17T03:21:24.613Z,3.28
2019-02-17T03:22:26.004Z,3.30
2019-02-17T03:23:27.383Z,3.35
2019-02-17T03:24:28.774Z,3.28
2019-02-17T03:25:30.167Z,3.30
2019-02-17T03:26:31.553Z,3.19
2019-02-17T03:27:32.959Z,3.23
2019-02-17T03:28:34.383Z,3.30
2019-02-17T03:29:35.763Z,3.13
2019-02-17T03:30:37.177Z,3.17
2019-02-17T03:31:38.587Z,3.15
2019-02-17T03:32:40.002Z,3.12
2019-02-17T03:33:41.372Z,3.10
2019-02-17T03:34:42.771Z,3.12
2019-02-17T03:35:44.592Z,3.10
2019-02-17T03:36:45.551Z,3.12
2019-02-17T03:37:46.948Z,3.13
2019-02-17T03:38:48.341Z,3.12
2019-02-17T03:39:49.743Z,3.17
2019-02-17T03:40:51.125Z,3.20
2019-02-17T03:41:52.529Z,3.26
2019-02-17T03:42:53.926Z,3.13
2019-02-17T03:43:55.331Z,3.16
2019-02-17T03:44:56.707Z,3.17
2019-02-17T03:45:58.090Z,3.15
2019-02-17T03:46:59.473Z,3.17
2019-02-17T03:48:00.912Z,3.15
2019-02-17T03:49:02.260Z,3.20
2019-02-17T03:50:03.636Z,3.17
2019-02-17T03:51:05.039Z,3.17
2019-02-17T03:52:06.431Z,3.17
2019-02-17T03:53:07.822Z,3.15
2019-02-17T03:54:09.215Z,3.05
2019-02-17T03:55:10.599Z,3.13
2019-02-17T03:56:11.992Z,3.17
2019-02-17T03:57:13.378Z,3.12
2019-02-17T03:58:14.771Z,3.16
2019-02-17T03:59:16.159Z,3.10
2019-02-17T04:00:17.732Z,3.17
2019-02-17T04:01:18.897Z,3.16
2019-02-17T04:02:20.282Z,3.15
2019-02-17T04:03:21.664Z,3.16
2019-02-17T04:04:23.062Z,3.16
2019-02-17T04:05:24.451Z,3.17
2019-02-17T04:06:25.835Z,3.25
2019-02-17T04:07:27.216Z,3.28
2019-02-17T04:08:28.609Z,3.23
2019-02-17T04:09:30.000Z,3.20
2019-02-17T04:10:31.398Z,3.20
2019-02-17T04:11:32.780Z,3.22
2019-02-17T04:12:34.174Z,3.22
2019-02-17T04:13:35.560Z,3.22
2019-02-17T04:14:36.946Z,3.16
2019-02-17T04:15:38.353Z,3.20
2019-02-17T04:16:39.721Z,3.19
2019-02-17T04:17:41.109Z,3.23
2019-02-17T04:18:42.494Z,3.19
2019-02-17T04:19:43.891Z,3.25
2019-02-17T04:20:45.273Z,3.23
2019-02-17T04:21:46.674Z,3.22
2019-02-17T04:22:48.084Z,3.15
2019-02-17T04:23:49.481Z,3.17
2019-02-17T04:24:50.886Z,3.07
2019-02-17T04:25:52.265Z,3.19
2019-02-17T04:26:53.621Z,3.23
2019-02-17T04:27:55.016Z,3.22
2019-02-17T04:28:56.413Z,3.30
2019-02-17T04:29:57.812Z,3.34
2019-02-17T04:30:59.200Z,3.39
2019-02-17T04:32:00.581Z,3.45
2019-02-17T04:33:01.963Z,3.39
2019-02-17T04:34:03.361Z,3.39
2019-02-17T04:35:04.760Z,3.39
2019-02-17T04:36:06.146Z,3.33
2019-02-17T04:37:07.523Z,3.35
2019-02-17T04:38:08.914Z,3.34
2019-02-17T04:39:10.300Z,3.28
2019-02-17T04:40:11.686Z,3.34
2019-02-17T04:41:13.076Z,3.34
2019-02-17T04:42:14.459Z,3.41
2019-02-17T04:43:15.851Z,3.50
2019-02-17T04:44:17.238Z,3.39
2019-02-17T04:45:19.602Z,3.45
2019-02-17T04:46:20.996Z,3.45
2019-02-17T04:47:22.392Z,3.37
2019-02-17T04:48:23.779Z,3.33
2019-02-17T04:49:25.159Z,3.41
2019-02-17T04:50:26.553Z,3.41
2019-02-17T04:51:27.971Z,3.44
2019-02-17T04:52:29.371Z,3.41
2019-02-17T04:53:30.764Z,3.37
2019-02-17T04:54:32.163Z,3.45
2019-02-17T04:55:33.547Z,3.42
2019-02-17T04:56:34.930Z,3.41
2019-02-17T04:57:36.333Z,3.42
2019-02-17T04:58:37.713Z,3.39
2019-02-17T04:59:39.100Z,3.31
2019-02-17T05:00:40.733Z,3.35
2019-02-17T05:01:41.848Z,3.35
2019-02-17T05:02:43.254Z,3.34
2019-02-17T05:03:44.645Z,3.42
2019-02-17T05:04:46.044Z,3.37
2019-02-17T05:05:47.425Z,3.42
2019-02-17T05:06:48.838Z,3.45
2019-02-17T05:07:50.227Z,3.42
2019-02-17T05:08:51.624Z,3.45
2019-02-17T05:09:53.023Z,3.41
2019-02-17T05:10:54.407Z,3.50
2019-02-17T05:11:55.800Z,3.50
2019-02-17T05:12:57.192Z,3.44
2019-02-17T05:13:59.524Z,3.49
2019-02-17T05:15:00.935Z,3.53
2019-02-17T05:16:02.323Z,3.50
2019-02-17T05:17:03.720Z,3.46
2019-02-17T05:18:05.110Z,3.59
2019-02-17T05:19:06.497Z,3.56
2019-02-17T05:20:07.895Z,3.59
2019-02-17T05:21:09.299Z,3.70
2019-02-17T05:22:10.693Z,3.60
2019-02-17T05:23:12.080Z,3.64
2019-02-17T05:24:13.471Z,3.56
2019-02-17T05:25:14.924Z,3.62
2019-02-17T05:26:16.215Z,3.56
2019-02-17T05:27:17.610Z,3.56
2019-02-17T05:28:18.996Z,3.60
2019-02-17T05:29:20.394Z,3.53
2019-02-17T05:30:21.792Z,3.46
2019-02-17T05:31:23.169Z,3.49
2019-02-17T05:32:24.582Z,3.50
2019-02-17T05:33:25.970Z,3.52
2019-02-17T05:34:27.364Z,3.54
2019-02-17T05:35:28.751Z,3.59
2019-02-17T05:36:30.137Z,3.57
2019-02-17T05:37:31.536Z,3.59
2019-02-17T05:38:32.928Z,3.68
2019-02-17T05:39:34.307Z,3.70
2019-02-17T05:40:36.639Z,3.77
2019-02-17T05:41:37.055Z,3.78
2019-02-17T05:42:38.408Z,3.81
2019-02-17T05:43:39.819Z,3.82
2019-02-17T05:44:41.220Z,3.88
2019-02-17T05:45:42.607Z,3.93
2019-02-17T05:46:43.993Z,3.88
2019-02-17T05:47:45.377Z,3.98
2019-02-17T05:48:46.764Z,3.89
2019-02-17T05:49:48.153Z,3.92
2019-02-17T05:50:49.546Z,3.81
2019-02-17T05:51:50.929Z,3.82
2019-02-17T05:52:52.319Z,3.86
2019-02-17T05:53:53.703Z,3.90
2019-02-17T05:54:55.092Z,3.88
2019-02-17T05:55:56.484Z,3.99
2019-02-17T05:56:57.876Z,4.07
2019-02-17T05:57:59.254Z,4.02
2019-02-17T05:59:00.639Z,4.04
2019-02-17T06:00:02.055Z,4.10
2019-02-17T06:01:04.224Z,4.13
2019-02-17T06:02:04.762Z,4.17
2019-02-17T06:03:06.173Z,4.16
2019-02-17T06:04:07.533Z,4.26
2019-02-17T06:05:08.933Z,4.20
2019-02-17T06:06:10.324Z,4.29
2019-02-17T06:07:11.707Z,4.32
2019-02-17T06:08:13.090Z,4.25
2019-02-17T06:09:14.488Z,4.29
2019-02-17T06:10:15.872Z,4.26
2019-02-17T06:11:17.256Z,4.32
2019-02-17T06:12:18.792Z,4.32
2019-02-17T06:13:19.991Z,4.36
2019-02-17T06:14:21.379Z,4.26
2019-02-17T06:15:22.770Z,4.26
2019-02-17T06:16:24.161Z,4.32
2019-02-17T06:17:25.566Z,4.28
2019-02-17T06:18:26.934Z,4.35
2019-02-17T06:19:28.322Z,4.29
2019-02-17T06:20:29.712Z,4.44
2019-02-17T06:21:31.098Z,4.39
2019-02-17T06:22:32.495Z,4.38
2019-02-17T06:23:33.876Z,4.39
2019-02-17T06:24:35.272Z,4.43
2019-02-17T06:25:36.664Z,4.43
2019-02-17T06:26:38.044Z,4.43
2019-02-17T06:27:39.429Z,4.43
2019-02-17T06:28:40.823Z,4.36
2019-02-17T06:29:42.216Z,4.34
2019-02-17T06:30:43.608Z,4.42
2019-02-17T06:31:45.006Z,4.36
2019-02-17T06:32:46.399Z,4.42
2019-02-17T06:33:47.784Z,4.32
2019-02-17T06:34:49.183Z,4.35
2019-02-17T06:35:50.569Z,4.54
2019-02-17T06:36:51.970Z,4.46
2019-02-17T06:37:53.362Z,4.42
2019-02-17T06:38:54.751Z,4.47
2019-02-17T06:39:56.142Z,4.39
2019-02-17T06:40:57.535Z,4.49
2019-02-17T06:41:58.922Z,4.51
2019-02-17T06:43:00.316Z,4.44
2019-02-17T06:44:01.713Z,4.43
2019-02-17T06:45:03.106Z,4.50
2019-02-17T06:46:04.500Z,4.50
2019-02-17T06:47:05.895Z,4.56
2019-02-17T06:48:07.291Z,4.50
2019-02-17T06:49:08.670Z,4.62
2019-02-17T06:50:10.079Z,4.56
2019-02-17T06:51:11.467Z,4.69
2019-02-17T06:52:12.854Z,4.71
2019-02-17T06:53:14.244Z,4.71
2019-02-17T06:54:15.651Z,4.68
2019-02-17T06:55:17.034Z,4.71
2019-02-17T06:56:18.426Z,4.68
2019-02-17T06:57:19.819Z,4.75
2019-02-17T06:58:21.209Z,4.79
2019-02-17T06:59:22.602Z,4.83
2019-02-17T07:00:24.018Z,4.90
2019-02-17T07:01:25.417Z,4.94
2019-02-17T07:02:26.817Z,4.93
2019-02-17T07:03:28.211Z,4.94
2019-02-17T07:04:29.595Z,4.94
2019-02-17T07:05:31.003Z,4.97
2019-02-17T07:06:32.430Z,5.05
2019-02-17T07:07:33.800Z,4.97
2019-02-17T07:08:35.190Z,5.08
2019-02-17T07:09:36.578Z,5.09
2019-02-17T07:10:37.980Z,5.05
2019-02-17T07:11:39.435Z,5.15
2019-02-17T07:12:42.532Z,5.15
2019-02-17T07:13:42.171Z,5.11
2019-02-17T07:14:43.586Z,5.11
2019-02-17T07:15:44.991Z,5.20
2019-02-17T07:16:46.375Z,5.19
2019-02-17T07:17:47.780Z,5.24
2019-02-17T07:18:49.185Z,5.19
2019-02-17T07:19:50.576Z,5.30
2019-02-17T07:20:51.985Z,5.26
2019-02-17T07:21:53.397Z,5.37
2019-02-17T07:22:54.785Z,5.30
2019-02-17T07:23:56.201Z,5.42
2019-02-17T07:24:57.615Z,5.45
2019-02-17T07:25:59.023Z,5.44
2019-02-17T07:27:00.437Z,5.42
2019-02-17T07:28:01.850Z,5.40
2019-02-17T07:29:03.268Z,5.41
2019-02-17T07:30:04.658Z,5.35
2019-02-17T07:31:06.073Z,5.55
2019-02-17T07:32:07.477Z,5.49
2019-02-17T07:33:08.886Z,5.48
2019-02-17T07:34:10.282Z,5.60
2019-02-17T07:35:11.666Z,5.60
2019-02-17T07:36:13.072Z,5.62
2019-02-17T07:37:14.466Z,5.59
2019-02-17T07:38:15.861Z,5.66
2019-02-17T07:39:17.242Z,5.56
2019-02-17T07:40:18.654Z,5.63
2019-02-17T07:41:20.047Z,5.62
2019-02-17T07:42:21.447Z,5.73
2019-02-17T07:43:22.851Z,5.66
2019-02-17T07:44:24.827Z,5.77
2019-02-17T07:45:26.237Z,5.67
2019-02-17T07:46:27.633Z,5.78
2019-02-17T07:47:29.019Z,5.81
2019-02-17T07:48:30.405Z,5.85
2019-02-17T07:49:31.803Z,5.87
2019-02-17T07:50:33.191Z,5.90
2019-02-17T07:51:34.589Z,5.90
2019-02-17T07:52:35.976Z,5.96
2019-02-17T07:53:37.401Z,5.99
2019-02-17T07:54:38.763Z,5.96
2019-02-17T07:55:40.176Z,5.99
2019-02-17T07:56:41.553Z,5.96
2019-02-17T07:57:42.950Z,6.02
2019-02-17T07:58:44.345Z,6.13
2019-02-17T07:59:45.746Z,6.13
2019-02-17T08:00:47.132Z,6.08
2019-02-17T08:01:48.526Z,6.10
2019-02-17T08:02:49.923Z,6.20
2019-02-17T08:03:51.313Z,6.20
2019-02-17T08:04:52.708Z,5.98
2019-02-17T08:05:54.091Z,5.96
2019-02-17T08:06:55.524Z,5.78
2019-02-17T08:07:56.914Z,5.80
2019-02-17T08:08:58.310Z,5.81
2019-02-17T08:10:00.811Z,5.85
2019-02-17T08:11:04.124Z,5.93
2019-02-17T08:12:02.419Z,6.02
2019-02-17T08:13:03.821Z,6.01
2019-02-17T08:14:05.299Z,6.05
2019-02-17T08:15:07.291Z,5.98
2019-02-17T08:16:08.050Z,6.08
2019-02-17T08:17:09.449Z,6.10
2019-02-17T08:18:10.879Z,6.24
2019-02-17T08:19:12.270Z,6.16
2019-02-17T08:20:13.663Z,6.27
2019-02-17T08:21:15.055Z,6.43
2019-02-17T08:22:16.525Z,6.42
2019-02-17T08:23:17.924Z,6.40
2019-02-17T08:24:19.312Z,6.43
2019-02-17T08:25:22.155Z,6.50
2019-02-17T08:26:22.066Z,6.61
2019-02-17T08:27:23.463Z,6.54
2019-02-17T08:28:24.864Z,6.53
2019-02-17T08:29:26.268Z,6.72
2019-02-17T08:30:27.658Z,6.68
2019-02-17T08:31:29.058Z,6.64
2019-02-17T08:32:30.453Z,6.71
2019-02-17T08:33:31.846Z,6.73
2019-02-17T08:34:33.242Z,6.81
2019-02-17T08:35:34.635Z,6.81
2019-02-17T08:36:36.037Z,6.87
2019-02-17T08:37:37.441Z,6.81
2019-02-17T08:38:38.900Z,6.93
2019-02-17T08:39:40.295Z,6.91
2019-02-17T08:40:41.734Z,6.91
2019-02-17T08:41:43.128Z,6.87
2019-02-17T08:42:44.533Z,6.97
2019-02-17T08:43:45.921Z,7.04
2019-02-17T08:44:47.322Z,7.04
2019-02-17T08:45:48.709Z,7.05
2019-02-17T08:46:50.099Z,7.04
2019-02-17T08:47:51.489Z,7.16
2019-02-17T08:48:52.885Z,7.19
2019-02-17T08:49:54.288Z,7.24
2019-02-17T08:50:55.676Z,7.24
2019-02-17T08:51:57.080Z,7.24
2019-02-17T08:52:58.479Z,7.36
2019-02-17T08:53:59.878Z,7.32
2019-02-17T08:55:01.267Z,7.41
2019-02-17T08:56:02.664Z,7.41
2019-02-17T08:57:04.054Z,7.52
2019-02-17T08:58:05.448Z,7.51
2019-02-17T08:59:06.844Z,7.57
2019-02-17T09:00:08.246Z,7.54
2019-02-17T09:01:09.643Z,7.47
2019-02-17T09:02:11.046Z,7.50
2019-02-17T09:03:13.284Z,7.55
2019-02-17T09:04:14.668Z,7.58
2019-02-17T09:05:16.063Z,7.76
2019-02-17T09:06:17.453Z,7.71
2019-02-17T09:07:18.855Z,7.69
2019-02-17T09:08:20.275Z,7.70
2019-02-17T09:09:21.671Z,7.73
2019-02-17T09:10:23.056Z,7.81
2019-02-17T09:11:24.460Z,7.81
2019-02-17T09:12:25.846Z,7.85
2019-02-17T09:13:27.240Z,7.84
2019-02-17T09:14:28.637Z,7.85
2019-02-17T09:15:30.044Z,7.92
2019-02-17T09:16:31.449Z,7.95
2019-02-17T09:17:32.841Z,7.95
2019-02-17T09:18:34.230Z,7.95
2019-02-17T09:19:35.641Z,7.99
2019-02-17T09:20:37.048Z,7.94
2019-02-17T09:21:38.441Z,8.03
2019-02-17T09:22:39.843Z,7.99
2019-02-17T09:23:41.240Z,8.04
2019-02-17T09:24:42.638Z,8.04
2019-02-17T09:25:44.044Z,8.12
2019-02-17T09:26:45.426Z,8.14
2019-02-17T09:27:47.081Z,8.25
2019-02-17T09:28:48.190Z,8.21
2019-02-17T09:29:49.581Z,8.28
2019-02-17T09:30:51.048Z,8.31
2019-02-17T09:31:52.486Z,8.29
2019-02-17T09:32:53.942Z,8.34
2019-02-17T09:33:55.383Z,8.37
2019-02-17T09:34:56.813Z,8.34
2019-02-17T09:35:58.303Z,8.42
2019-02-17T09:36:59.758Z,8.40
2019-02-17T09:38:01.195Z,8.45
2019-02-17T09:39:02.633Z,8.64
2019-02-17T09:40:04.108Z,8.52
2019-02-17T09:41:05.602Z,8.67
2019-02-17T09:42:07.037Z,8.65
2019-02-17T09:43:08.484Z,8.70
2019-02-17T09:44:09.937Z,8.71
2019-02-17T09:45:11.337Z,8.64
2019-02-17T09:46:12.744Z,8.75
2019-02-17T09:47:14.145Z,8.80
2019-02-17T09:48:15.537Z,8.83
2019-02-17T09:49:16.929Z,8.93
2019-02-17T09:50:18.331Z,8.93
2019-02-17T09:51:19.725Z,8.94
2019-02-17T09:52:21.122Z,8.89
2019-02-17T09:53:22.516Z,9.00
2019-02-17T09:54:23.920Z,9.01
2019-02-17T09:55:25.318Z,8.97
2019-02-17T09:56:26.720Z,9.13
2019-02-17T09:57:28.172Z,9.20
2019-02-17T09:58:29.570Z,9.23
2019-02-17T09:59:30.970Z,9.32
2019-02-17T10:00:32.366Z,9.40
2019-02-17T10:01:33.771Z,9.42
2019-02-17T10:02:35.170Z,9.52
2019-02-17T10:03:36.574Z,9.68
2019-02-17T10:04:37.971Z,9.74
2019-02-17T10:05:39.365Z,9.93
2019-02-17T10:06:40.766Z,10.06
2019-02-17T10:07:42.164Z,10.04
2019-02-17T10:08:43.562Z,10.07
2019-02-17T10:09:44.961Z,10.10
2019-02-17T10:10:46.373Z,10.16
2019-02-17T10:11:47.772Z,10.25
2019-02-17T10:12:49.164Z,10.31
2019-02-17T10:13:50.577Z,10.51
2019-02-17T10:14:51.972Z,10.46
2019-02-17T10:15:53.371Z,10.52
2019-02-17T10:16:54.775Z,10.57
2019-02-17T10:17:56.203Z,10.68
2019-02-17T10:18:57.593Z,10.76
2019-02-17T10:19:58.985Z,10.84
2019-02-17T10:21:00.382Z,10.99
2019-02-17T10:22:01.814Z,11.01
2019-02-17T10:23:03.204Z,11.08
2019-02-17T10:24:04.620Z,11.11
2019-02-17T10:25:06.030Z,11.16
2019-02-17T10:26:07.446Z,11.19
2019-02-17T10:27:08.846Z,11.17
2019-02-17T10:28:10.262Z,11.26
2019-02-17T10:29:11.678Z,11.27
2019-02-17T10:30:13.083Z,11.28
2019-02-17T10:31:14.491Z,11.41
2019-02-17T10:32:15.911Z,11.49
2019-02-17T10:33:17.330Z,11.59
2019-02-17T10:34:18.740Z,11.74
2019-02-17T10:35:20.147Z,11.82
2019-02-17T10:36:21.545Z,11.94
2019-02-17T10:37:22.943Z,12.08
2019-02-17T10:38:24.351Z,12.18
2019-02-17T10:39:25.766Z,12.23
2019-02-17T10:40:27.174Z,12.29
2019-02-17T10:41:28.611Z,12.37
2019-02-17T10:42:30.015Z,12.44
2019-02-17T10:43:31.422Z,12.46
2019-02-17T10:44:32.820Z,12.56
2019-02-17T10:45:34.234Z,12.58
2019-02-17T10:46:35.631Z,12.56
2019-02-17T10:47:37.039Z,12.56
2019-02-17T10:48:38.443Z,12.66
2019-02-17T10:49:39.846Z,12.81
2019-02-17T10:50:41.254Z,12.88
2019-02-17T10:51:42.664Z,12.96
2019-02-17T10:52:44.065Z,13.10
2019-02-17T10:53:45.488Z,13.19
2019-02-17T10:54:47.037Z,13.27
2019-02-17T10:55:48.278Z,13.31
2019-02-17T10:56:49.688Z,13.47
2019-02-17T10:57:51.093Z,13.69
2019-02-17T10:58:52.512Z,13.91
2019-02-17T10:59:55.888Z,13.93
2019-02-17T11:00:55.280Z,13.98
2019-02-17T11:01:56.708Z,14.08
2019-02-17T11:02:58.116Z,14.13
2019-02-17T11:03:59.551Z,14.26
2019-02-17T11:05:00.951Z,14.45
2019-02-17T11:06:02.354Z,14.54
2019-02-17T11:07:03.757Z,14.71
2019-02-17T11:08:05.159Z,15.03
2019-02-17T11:09:06.555Z,15.18
2019-02-17T11:10:07.964Z,15.41
2019-02-17T11:11:09.392Z,15.86
2019-02-17T11:12:10.801Z,16.01
2019-02-17T11:13:12.221Z,16.14
2019-02-17T11:14:13.638Z,16.41
2019-02-17T11:15:15.045Z,16.45
2019-02-17T11:16:16.459Z,16.60
2019-02-17T11:17:17.865Z,16.85
2019-02-17T11:18:19.276Z,16.92
2019-02-17T11:19:20.676Z,16.99
2019-02-17T11:20:22.100Z,17.03
2019-02-17T11:21:23.514Z,17.02
2019-02-17T11:22:24.932Z,17.07
2019-02-17T11:23:26.337Z,17.15
2019-02-17T11:24:27.762Z,17.15
2019-02-17T11:25:29.169Z,17.30
2019-02-17T11:26:30.576Z,17.30
2019-02-17T11:27:32.012Z,17.45
2019-02-17T11:28:33.418Z,17.42
2019-02-17T11:29:34.833Z,17.45
2019-02-17T11:30:36.256Z,17.51
2019-02-17T11:31:37.685Z,17.55
2019-02-17T11:32:39.110Z,17.63
2019-02-17T11:33:40.526Z,17.65
2019-02-17T11:34:41.941Z,17.63
2019-02-17T11:35:43.387Z,17.74
2019-02-17T11:36:44.806Z,17.92
2019-02-17T11:37:46.217Z,17.89
2019-02-17T11:38:47.637Z,17.99
2019-02-17T11:39:49.109Z,18.07
2019-02-17T11:40:50.438Z,18.11
2019-02-17T11:41:51.839Z,18.14
2019-02-17T11:42:53.290Z,18.04
2019-02-17T11:43:54.729Z,18.07
2019-02-17T11:44:56.149Z,18.20
2019-02-17T11:45:57.562Z,18.19
2019-02-17T11:46:58.996Z,18.31
2019-02-17T11:48:00.441Z,18.39
2019-02-17T11:49:01.866Z,18.38
2019-02-17T11:50:03.299Z,18.46
2019-02-17T11:51:04.711Z,18.36
2019-02-17T11:52:06.145Z,18.34
2019-02-17T11:53:07.578Z,18.26
2019-02-17T11:54:09.004Z,18.20
2019-02-17T11:55:10.416Z,18.17
2019-02-17T11:56:11.838Z,18.26
2019-02-17T11:57:13.251Z,18.25
2019-02-17T11:58:14.661Z,18.17
2019-02-17T11:59:16.088Z,18.28
2019-02-17T12:00:18.709Z,18.28
2019-02-17T12:01:20.124Z,18.23
2019-02-17T12:02:24.902Z,18.25
2019-02-17T12:03:22.919Z,18.19
2019-02-17T12:04:24.325Z,18.19
2019-02-17T12:05:25.765Z,18.01
2019-02-17T12:06:27.194Z,17.89
2019-02-17T12:07:28.589Z,17.80
2019-02-17T12:08:30.011Z,17.76
2019-02-17T12:09:31.416Z,17.66
2019-02-17T12:10:32.827Z,17.66
2019-02-17T12:11:34.242Z,17.65
2019-02-17T12:12:35.655Z,17.55
2019-02-17T12:13:37.272Z,17.49
2019-02-17T12:14:39.004Z,17.42
2019-02-17T12:15:40.459Z,17.39
2019-02-17T12:16:42.102Z,17.47
2019-02-17T12:17:43.856Z,17.42
2019-02-17T12:18:45.624Z,17.47
2019-02-17T12:19:47.347Z,17.53
2019-02-17T12:20:48.956Z,17.45
2019-02-17T12:21:50.661Z,17.27
2019-02-17T12:22:52.228Z,17.35
2019-02-17T12:23:53.968Z,17.38
2019-02-17T12:24:55.559Z,17.32
2019-02-17T12:25:57.204Z,17.32
2019-02-17T12:26:58.933Z,17.36
2019-02-17T12:28:00.587Z,17.35
2019-02-17T12:29:02.253Z,17.35
2019-02-17T12:30:04.551Z,17.39
2019-02-17T12:31:06.030Z,17.36
2019-02-17T12:32:07.437Z,17.32
2019-02-17T12:33:17.742Z,17.30
2019-02-17T12:34:10.244Z,17.27
2019-02-17T12:35:11.661Z,17.18
2019-02-17T12:36:13.067Z,17.21
2019-02-17T12:37:14.476Z,17.03
2019-02-17T12:38:15.883Z,17.00
2019-02-17T12:39:17.908Z,16.88
2019-02-17T12:40:19.332Z,16.85
2019-02-17T12:41:20.930Z,16.69
2019-02-17T12:42:22.464Z,16.59
2019-02-17T12:43:23.843Z,16.63
2019-02-17T12:44:25.244Z,16.55
2019-02-17T12:45:26.652Z,16.42
2019-02-17T12:46:28.064Z,16.26
2019-02-17T12:47:29.474Z,16.23
2019-02-17T12:48:30.904Z,16.30
2019-02-17T12:49:32.312Z,16.33
2019-02-17T12:50:33.727Z,16.42
2019-02-17T12:51:35.139Z,16.36
2019-02-17T12:52:46.313Z,16.23
2019-02-17T12:53:37.958Z,16.16
2019-02-17T12:54:39.361Z,16.18
2019-02-17T12:55:40.793Z,16.06
2019-02-17T12:56:42.216Z,16.06
2019-02-17T12:57:43.663Z,16.08
2019-02-17T12:58:45.113Z,16.06
2019-02-17T12:59:46.551Z,16.04
2019-02-17T13:00:47.986Z,16.13
2019-02-17T13:01:49.385Z,16.16
2019-02-17T13:02:50.795Z,16.17
2019-02-17T13:03:52.214Z,16.17
2019-02-17T13:04:53.634Z,16.18
2019-02-17T13:05:55.143Z,16.17
2019-02-17T13:06:56.561Z,16.16
2019-02-17T13:07:57.955Z,16.14
2019-02-17T13:08:59.393Z,16.16
2019-02-17T13:10:00.828Z,16.14
2019-02-17T13:11:02.403Z,16.23
2019-02-17T13:12:03.842Z,16.26
2019-02-17T13:13:05.283Z,16.25
2019-02-17T13:14:06.683Z,16.17
2019-02-17T13:15:08.086Z,16.13
2019-02-17T13:16:09.501Z,16.25
2019-02-17T13:17:10.908Z,16.11
2019-02-17T13:18:12.312Z,16.08
2019-02-17T13:19:13.727Z,16.10
2019-02-17T13:20:15.140Z,16.10
2019-02-17T13:21:16.543Z,16.08
2019-02-17T13:22:17.960Z,16.04
2019-02-17T13:23:19.368Z,16.06
2019-02-17T13:24:20.772Z,16.03
2019-02-17T13:25:22.176Z,15.99
2019-02-17T13:26:23.578Z,16.01
2019-02-17T13:27:24.985Z,16.08
2019-02-17T13:28:26.424Z,16.08
2019-02-17T13:29:27.847Z,16.01
2019-02-17T13:30:29.252Z,16.03